North Dighton, MA (02764)

2:33 PM EDT on March 27, 2017 (GMT -0400)
Taunton | | Change Station

Elev 15 ft 41.86 °N, 71.12 °W | Updated 53 seconds ago

Rain
Rain
48.2 °F
Feels Like 48 °F
N
2.0
Wind Variable Wind from SSW

Today
High -- | Low -- °F
--% Chance of Precip.
Yesterday
High -- | Low -- °F
Precip. -- in
Pressure 30.03 in
Visibility 3.0 miles
Clouds Overcast 400 ft
Windchill 48 °F
Dew Point 47 °F
Humidity 98%
Rainfall 0.33 in
Snow Depth Not available.
6:35 AM 7:04 PM
Waning Crescent, 0% visible
SPECI KTAN 271801Z AUTO VRB04KT 3SM RA BR OVC004 09/08 A3003 RMK AO2 P0002 T00890078
Pressure 30.03 in
Visibility 3.0 miles
Clouds Overcast 400 ft
Windchill 48 °F
Dew Point 47 °F
Humidity 98%
Rainfall 0.33 in
Snow Depth Not available.
6:35 AM 7:04 PM
Waning Crescent, 0% visible
SPECI KTAN 271801Z AUTO VRB04KT 3SM RA BR OVC004 09/08 A3003 RMK AO2 P0002 T00890078

Get Severe Weather Alerts

Thanks for signing up!

Be on the lookout for a verification email in your inbox.

You'll start receiving the daily forecast at 8 AM.

×

10-Day Weather Forecast

Almanac

Astronomy

Mar. 27, 2017 Rise Set
Actual Time
Civil Twilight
Nautical Twilight
Astronomical Twilight
Moon
Length of Visible Light
Length of Day
Tomorrow will be .
, % of the Moon is Illuminated

Today's Extremes

State Highs State Lows

Community

WunderPhotos

Upload Photos

1,962,540 photos uploaded!

WunderBlog® & News

Nearby

Air Quality

  Air Quality AQ Index Pollutant
Not available.

Snow Depth

Station Depth Elevation

Earthquake Activity

City Distance Mag. Time & Date
Minimum magnitude displayed is 2.5.

Earthquake Activity

City Distance Mag. Time & Date
Minimum magnitude displayed is 2.5.

Coastal Water Temperatures

Place Temperature

Stations

Nearby Weather Stations

Station Location Temp. Windchill Dew Point Humidity Wind Precip. Elev Updated Type
                   

Watches & Warnings

There are currently no watches in effect.